James Reserve, California Weather observations

Data are for 10 minute period ending at time listed.
 Day   Time   Solar   Ave.   Ave.  Ave.  Vector  Max.   Baro.   Total    
  of    of     Rad.   Air    Rel.  Wind   Wind   Wind  Press.  Precip.   
Year   Day            Temp.  Hum.  Speed  Dir.   Gust                    
2014   (PST)  Kw/m2    F      %     mph   deg.    mph    mb.     in.     
-------------------------------------------------------------------------
 294   14:00   0.62   65.5    27    1.0   190     2.5   836.0    0.00 
 294   14:10   0.57   65.4    27    0.6   162     1.8   836.0    0.00 
 294   14:20   0.05   65.0    27    1.0   193     2.4   835.0    0.00 
 294   14:30   0.04   64.7    28    0.6   220     1.7   835.0    0.00 
 294   14:40   0.04   64.7    30    0.8   190     2.1   835.0    0.00 
 294   14:50   0.10   64.3    32    0.8   160     1.8   835.0    0.00 
 294   15:00   0.10   63.8    34    0.7   214     2.0   835.0    0.00 
 294   15:10   0.04   63.0    34    0.5   163     1.3   835.0    0.00 
 294   15:20   0.05   62.9    35    0.7   183     2.4   835.0    0.00 
 294   15:30   0.04   62.8    34    0.7   136     1.4   835.0    0.00 
 294   15:40   0.05   62.3    34    0.5   220     2.1   835.0    0.00 
 294   15:50   0.03   61.5    37    0.4   347     1.1   835.0    0.00 
 294   16:00   0.04   61.4    37    0.5    60     1.4   836.0    0.00 
 294   16:10   0.06   61.2    38    0.5   116     1.4   836.0    0.00 
 294   16:20   0.05   60.4    41    0.4     5     1.4   836.0    0.00 
 294   16:30   0.04   60.3    41    0.3     8     0.9   836.0    0.00 
 294   16:40   0.02   59.6    43    0.4    21     0.8   836.0    0.00 
 294   16:50   0.01   58.7    44    0.3   348     0.7   836.0    0.00 
 294   17:00   0.01   57.6    47    0.3    35     0.7   836.0    0.00 
 294   17:10   0.00   56.6    49    0.3    42     0.6   836.0    0.00 
 294   17:20   0.00   55.4    50    0.2    27     0.5   836.0    0.00 
 294   17:30   0.00   54.2    51    0.3    50     0.6   836.0    0.00 
 294   17:40   0.00   53.2    53    0.3    33     0.5   836.0    0.00 
 294   17:50   0.00   52.1    56    0.1   322     0.3   836.0    0.00 
 294   18:00   0.00   50.9    59    0.4    32     1.0   836.0    0.00 
 294   18:10   0.00   50.3    60    0.2   354     0.4   836.0    0.00 
 294   18:20   0.00   49.5    62    0.3   352     0.6   836.0    0.00 
 294   18:30   0.00   49.0    63    0.2   348     0.5   836.0    0.00 
 294   18:40   0.00   48.4    65    0.4    21     0.9   836.0    0.00 
 294   18:50   0.00   47.8    66    0.5   356     0.9   836.0    0.00 
 294   19:00   0.00   47.5    66    0.4   348     0.6   836.0    0.00 
 294   19:10   0.00   46.5    64    0.4     7     0.7   836.0    0.00 
 294   19:20   0.00   46.0    56    0.4    12     0.7   836.0    0.00 
 294   19:30   0.00   45.5    53    0.3   333     0.6   836.0    0.00 
 294   19:40   0.00   44.5    50    0.4    16     0.7   836.0    0.00 
 294   19:50   0.00   44.1    46    0.3     4     0.5   836.0    0.00 
 294   20:00   0.00   43.6    43    0.3    22     0.5   836.0    0.00 
 294   20:10   0.00   43.1    41    0.3    27     0.5   837.0    0.00 
 294   20:20   0.00   42.9    39    0.3    22     0.5   837.0    0.00 
 294   20:30   0.00   42.7    37    0.3    36     0.5   837.0    0.00 
 294   20:40   0.00   42.5    36    0.2   357     0.4   837.0    0.00 
 294   20:50   0.00   42.3    36    0.4    35     0.7   837.0    0.00 
 294   21:00   0.00   42.4    35    0.3    21     0.6   837.0    0.00 
 294   21:10   0.00   42.5    35    0.3    21     0.6   837.0    0.00 
 294   21:20   0.00   42.5    34    0.4    31     0.8   837.0    0.00 
 294   21:30   0.00   42.5    34    0.3    33     0.5   837.0    0.00 
 294   21:40   0.00   42.6    33    0.3    35     0.5   837.0    0.00 
 294   21:50   0.00   42.6    33    0.2    12     0.4   837.0    0.00 
 294   22:00   0.00   42.3    34    0.3    26     0.5   837.0    0.00 
 294   22:10   0.00   42.4    33    0.2    14     0.4   837.0    0.00 
 294   22:20   0.00   42.4    33    0.3    26     0.6   837.0    0.00 
 294   22:30   0.00   42.3    33    0.3    26     0.5   837.0    0.00 
 294   22:40   0.00   42.3    33    0.3    32     0.7   837.0    0.00 
 294   22:50   0.00   42.4    32    0.2    24     0.4   837.0    0.00 
 294   23:00   0.00   42.3    32    0.2    28     0.5   837.0    0.00 
 294   23:10   0.00   42.3    32    0.2    23     0.3   837.0    0.00 
 294   23:20   0.00   42.3    32    0.3    25     0.6   837.0    0.00 
 294   23:30   0.00   42.2    33    0.3    34     0.4   837.0    0.00 
 294   23:40   0.00   42.1    32    0.2    20     0.3   837.0    0.00 
 294   23:50   0.00   42.0    32    0.2    18     0.4   837.0    0.00 
 295    0:00   0.00   41.9    33    0.3    33     0.6   837.0    0.00 
 295    0:10   0.00   41.7    33    0.3    23     0.7   837.0    0.00 
 295    0:20   0.00   41.7    32    0.3    26     0.6   837.0    0.00 
 295    0:30   0.00   41.8    32    0.3    26     0.5   837.0    0.00 
 295    0:40   0.00   41.6    32    0.2    14     0.4   837.0    0.00 
 295    0:50   0.00   41.3    33    0.3    19     0.5   837.0    0.00 
 295    1:00   0.00   41.1    34    0.3    34     0.5   837.0    0.00 
 295    1:10   0.00   41.3    32    0.3    35     0.4   837.0    0.00 
 295    1:20   0.00   41.1    33    0.3    27     0.4   837.0    0.00 
 295    1:30   0.00   41.3    32    0.3    31     0.5   837.0    0.00 
 295    1:40   0.00   41.4    33    0.4    22     0.8   837.0    0.00 
 295    1:50   0.00   41.6    33    0.4    34     0.8   837.0    0.00 
 295    2:00   0.00   41.7    33    0.3    39     0.6   837.0    0.00 
 295    2:10   0.00   41.7    33    0.2    25     0.4   836.0    0.00 
 295    2:20   0.00   41.7    34    0.2    32     0.4   836.0    0.00 
 295    2:30   0.00   41.7    34    0.2    27     0.4   836.0    0.00 
 295    2:40   0.00   41.5    34    0.3    37     0.5   836.0    0.00 
 295    2:50   0.00   41.8    33    0.2    22     0.3   836.0    0.00 
 295    3:00   0.00   41.8    34    0.2    32     0.3   836.0    0.00 
 295    3:10   0.00   41.8    35    0.2    16     0.4   836.0    0.00 
 295    3:20   0.00   41.7    35    0.3    36     0.6   837.0    0.00 
 295    3:30   0.00   41.8    34    0.3    23     0.4   837.0    0.00 
 295    3:40   0.00   41.9    35    0.3    19     0.4   837.0    0.00 
 295    3:50   0.00   41.9    34    0.3    32     0.6   837.0    0.00 
 295    4:00   0.00   41.9    34    0.4    30     0.7   837.0    0.00 
 295    4:10   0.00   41.9    34    0.2    17     0.4   837.0    0.00 
 295    4:20   0.00   41.7    35    0.3    33     0.4   837.0    0.00 
 295    4:30   0.00   41.9    34    0.2    18     0.4   837.0    0.00 
 295    4:40   0.00   41.9    35    0.3    29     0.6   837.0    0.00 
 295    4:50   0.00   42.0    35    0.3    30     0.6   837.0    0.00 
 295    5:00   0.00   42.0    35    0.3    36     0.6   837.0    0.00 
 295    5:10   0.00   41.9    36    0.2    25     0.5   837.0    0.00 
 295    5:20   0.00   41.9    36    0.2    25     0.4   837.0    0.00 
 295    5:30   0.00   42.0    36    0.3    23     0.5   837.0    0.00 
 295    5:40   0.00   42.1    36    0.2    25     0.4   837.0    0.00 
 295    5:50   0.00   42.1    36    0.2    30     0.4   837.0    0.00 
 295    6:00   0.00   42.0    36    0.2    29     0.4   837.0    0.00 
 295    6:10   0.00   42.0    37    0.2    26     0.4   837.0    0.00 
 295    6:20   0.00   42.3    36    0.3    34     0.4   838.0    0.00 
 295    6:30   0.01   42.7    36    0.4    33     0.8   838.0    0.00 
 295    6:40   0.01   42.7    38    0.2    23     0.4   838.0    0.00 
 295    6:50   0.01   42.8    39    0.4    36     0.7   838.0    0.00 
 295    7:00   0.01   42.9    40    0.3    39     0.4   838.0    0.00 
 295    7:10   0.01   43.1    42    0.3    46     0.8   838.0    0.00 
 295    7:20   0.02   43.3    42    0.4    43     0.7   838.0    0.00 
 295    7:30   0.02   43.8    44    0.6    50     0.8   839.0    0.00 
 295    7:40   0.02   44.7    44    0.6    53     0.8   839.0    0.00 
 295    7:50   0.03   45.5    43    0.6    52     0.8   839.0    0.00 
 295    8:00   0.03   46.6    40    0.6    50     0.8   839.0    0.00 
 295    8:10   0.03   47.6    37    0.6    51     0.8   839.0    0.00 
 295    8:20   0.04   48.6    35    0.6    54     0.8   839.0    0.00 
 295    8:30   0.09   49.7    32    0.6    54     0.9   839.0    0.00 
 295    8:40   0.04   50.9    30    0.5    56     0.7   839.0    0.00 
 295    8:50   0.04   52.1    28    0.5    57     0.7   839.0    0.00 
 295    9:00   0.04   53.3    27    0.4    62     0.7   839.0    0.00 
 295    9:10   0.04   55.3    26    0.3    76     0.8   839.0    0.00 
 295    9:20   0.04   57.7    23    0.4    72     1.1   839.0    0.00 
 295    9:30   0.04   59.7    20    0.3   118     0.7   839.0    0.00 
 295    9:40   0.05   63.4    14    0.4   129     1.5   839.0    0.00 
 295    9:50   0.04   65.7    12    0.5   125     1.8   839.0    0.00 
 295   10:00   0.06   66.9    11    0.7   206     2.0   839.0    0.00 
 295   10:10   0.40   67.5    11    0.6   186     1.5   839.0    0.00 
 295   10:20   0.23   68.2    12    0.7   205     1.4   839.0    0.00 
 295   10:30   0.06   68.9    11    1.0   204     1.9   839.0    0.00 
 295   10:40   0.06   69.4    11    0.8   213     2.0   839.0    0.00 
 295   10:50   0.10   70.2    10    0.9   285     2.1   839.0    0.00 
 295   11:00   0.50   71.3    10    0.8   254     2.4   839.0    0.00 
 295   11:10   0.74   72.7    11    0.9   225     1.8   839.0    0.00 
 295   11:20   0.66   72.8    11    0.8   263     2.9   839.0    0.00 
 295   11:30   0.78   72.5    11    0.9   232     2.8   839.0    0.00 
 295   11:40   0.76   72.6    12    0.7   169     2.0   839.0    0.00 
 295   11:50   0.80   73.3    12    0.8   272     1.9   839.0    0.00 
 295   12:00   0.75   73.3    12    0.7    22     2.5   838.0    0.00 
 295   12:10   0.79   73.8    12    0.9   325     2.1   838.0    0.00 
 295   12:20   0.78   73.2    13    0.8   312     2.0   838.0    0.00 
 295   12:30   0.77   72.5    13    0.8   164     2.0   838.0    0.00 
 295   12:40   0.76   72.3    13    1.0   277     2.2   838.0    0.00 
 295   12:50   0.74   72.6    12    0.9   202     2.7   838.0    0.00 
 295   13:00   0.72   73.0    12    0.9   329     2.3   838.0    0.00 
 295   13:10   0.72   73.1    12    0.9   336     2.5   838.0    0.00 
 295   13:20   0.69   72.7    12    0.8   336     2.0   838.0    0.00 
 295   13:30   0.53   72.1    13    0.8   212     2.2   838.0    0.00 
 295   13:40   0.61   72.1    13    0.7    21     2.1   838.0    0.00 
 295   13:50   0.53   72.3    13    0.7   329     2.1   838.0    0.00 

Return to James Reserve graphs page.


Western Regional Climate Center,wrcc@dri.edu